Time;durP1;ratioP1;P1;durP2;ratioP2;P2;SDS_P1;SDS_P2;PMS_P1;PMS_P2;Temp;Humidity;BMP_temperature;BMP_pressure;BME280_temperature;BME280_humidity;BME280_pressure;Samples;Min_cycle;Max_cycle;Signal;HPM_P1;HPM_P2
2023/03/09 00:01:50;;;;;;;11.85;8.63;;;1.80;99.90;;;;;;6098013;23;20021;-80
2023/03/09 00:04:17;;;;;;;8.68;7.78;;;1.80;99.90;;;;;;6097751;23;20022;-79
2023/03/09 00:06:43;;;;;;;9.50;8.35;;;1.80;99.90;;;;;;6098009;23;20018;-79
2023/03/09 00:09:10;;;;;;;9.23;7.72;;;1.90;99.90;;;;;;6121126;23;20067;-79
2023/03/09 00:11:39;;;;;;;10.40;9.05;;;1.80;99.90;;;;;;6097994;23;20063;-79
2023/03/09 00:14:04;;;;;;;10.10;9.02;;;1.90;99.90;;;;;;6097168;23;20014;-79
2023/03/09 00:16:30;;;;;;;8.98;7.72;;;2.20;99.90;;;;;;6097049;23;20017;-78
2023/03/09 00:19:00;;;;;;;10.50;7.70;;;2.20;99.90;;;;;;6097117;23;20113;-79
2023/03/09 00:21:34;;;;;;;10.60;9.13;;;2.20;99.90;;;;;;6097469;23;20084;-80
2023/03/09 00:24:04;;;;;;;13.85;7.80;;;1.60;99.90;;;;;;6098714;23;20018;-80
2023/03/09 00:26:31;;;;;;;10.07;8.63;;;1.60;99.90;;;;;;6123710;23;20021;-80
2023/03/09 00:28:57;;;;;;;9.88;8.55;;;2.30;99.90;;;;;;6098614;23;20029;-79
2023/03/09 00:31:23;;;;;;;12.52;8.75;;;1.80;99.90;;;;;;6099064;23;20021;-78
2023/03/09 00:33:49;;;;;;;10.57;8.93;;;2.60;99.90;;;;;;6098711;23;20015;-79
2023/03/09 00:36:16;;;;;;;10.63;8.85;;;1.50;99.90;;;;;;6123632;23;20021;-79
2023/03/09 00:38:42;;;;;;;11.35;9.57;;;1.50;99.90;;;;;;6100980;23;20018;-79
2023/03/09 00:41:09;;;;;;;11.05;9.95;;;2.20;99.90;;;;;;6124543;23;20014;-80
2023/03/09 00:43:35;;;;;;;12.82;11.13;;;1.50;99.90;;;;;;6122396;23;20049;-78
2023/03/09 00:46:01;;;;;;;12.93;11.05;;;1.60;99.90;;;;;;6099282;23;20018;-80
2023/03/09 00:48:26;;;;;;;11.65;10.30;;;2.30;99.90;;;;;;6101508;23;20662;-80
2023/03/09 00:50:52;;;;;;;14.85;11.02;;;1.50;99.90;;;;;;6101921;23;20014;-79
2023/03/09 00:53:18;;;;;;;12.00;10.80;;;1.50;99.90;;;;;;6124996;23;20017;-78
2023/03/09 00:55:44;;;;;;;14.15;10.32;;;1.40;99.90;;;;;;6101474;23;20324;-79
2023/03/09 00:58:10;;;;;;;13.77;10.13;;;2.30;99.90;;;;;;6124148;23;20014;-81
2023/03/09 01:00:37;;;;;;;12.82;10.30;;;2.00;99.90;;;;;;6099236;23;20513;-79
2023/03/09 01:03:03;;;;;;;15.05;10.63;;;1.90;99.90;;;;;;6098057;23;20052;-80
2023/03/09 01:05:29;;;;;;;13.63;10.88;;;1.40;99.90;;;;;;6097752;23;20021;-79
2023/03/09 01:07:55;;;;;;;13.35;11.05;;;1.40;99.90;;;;;;6098947;23;20078;-80
2023/03/09 01:10:21;;;;;;;13.80;10.70;;;1.50;99.90;;;;;;6123781;23;20077;-80
2023/03/09 01:12:47;;;;;;;12.38;10.45;;;1.60;99.90;;;;;;6099367;23;20014;-80
2023/03/09 01:15:13;;;;;;;12.63;11.05;;;2.00;99.90;;;;;;6098177;23;20014;-80
2023/03/09 01:17:39;;;;;;;13.68;12.07;;;1.40;99.90;;;;;;6122071;23;20073;-80
2023/03/09 01:20:06;;;;;;;13.68;11.50;;;1.90;99.90;;;;;;6098200;23;20018;-80
2023/03/09 01:22:31;;;;;;;12.48;11.18;;;1.40;99.90;;;;;;6123368;23;20025;-80
2023/03/09 01:24:57;;;;;;;12.95;11.57;;;0.60;99.90;;;;;;6098967;23;20018;-80
2023/03/09 01:27:23;;;;;;;14.75;11.57;;;1.40;99.90;;;;;;6098828;23;20021;-81
2023/03/09 01:29:48;;;;;;;11.82;10.45;;;1.60;99.90;;;;;;6096596;23;20503;-80
2023/03/09 01:32:14;;;;;;;12.63;11.32;;;2.10;99.90;;;;;;6121097;23;20486;-80
2023/03/09 01:34:40;;;;;;;13.15;11.85;;;2.10;99.90;;;;;;6099224;23;20010;-80
2023/03/09 01:37:06;;;;;;;13.57;12.18;;;2.40;99.90;;;;;;6101470;23;20022;-79
2023/03/09 01:39:33;;;;;;;14.02;11.32;;;1.40;99.90;;;;;;6101869;23;20473;-78
2023/03/09 01:41:59;;;;;;;13.50;12.13;;;1.30;99.90;;;;;;6101502;23;20025;-80
2023/03/09 01:44:25;;;;;;;15.25;12.75;;;1.30;99.90;;;;;;6100315;23;20029;-80
2023/03/09 01:46:55;;;;;;;14.30;11.75;;;1.40;99.90;;;;;;6100891;23;20057;-80
2023/03/09 01:49:38;;;;;;;13.43;12.02;;;2.30;99.90;;;;;;6123836;23;20410;-78
2023/03/09 01:52:22;;;;;;;14.38;12.88;;;1.30;99.90;;;;;;6100859;23;20018;-79
2023/03/09 01:54:54;;;;;;;14.27;12.45;;;1.30;99.90;;;;;;6101022;23;20018;-79
2023/03/09 01:57:31;;;;;;;14.52;12.25;;;1.40;99.90;;;;;;6125679;23;20029;-78
2023/03/09 02:00:05;;;;;;;14.70;12.05;;;1.30;99.90;;;;;;6099733;23;20022;-79
2023/03/09 02:02:35;;;;;;;14.77;11.83;;;1.30;99.90;;;;;;6098518;23;20048;-80
2023/03/09 02:05:04;;;;;;;16.17;13.77;;;1.30;99.90;;;;;;6099062;23;20023;-79
2023/03/09 02:07:34;;;;;;;14.27;12.77;;;1.30;99.90;;;;;;6100852;23;20087;-79
2023/03/09 02:10:26;;;;;;;14.52;11.98;;;1.20;99.90;;;;;;6125452;23;20041;-79
2023/03/09 02:12:56;;;;;;;15.02;13.35;;;1.30;99.90;;;;;;6100170;23;20018;-79
2023/03/09 02:15:24;;;;;;;14.43;12.65;;;1.30;99.90;;;;;;6101070;23;20477;-79
2023/03/09 02:17:50;;;;;;;15.43;12.20;;;2.10;99.90;;;;;;6099268;23;20072;-79
2023/03/09 02:20:41;;;;;;;14.32;10.30;;;1.20;99.90;;;;;;6124792;23;20097;-78
2023/03/09 02:23:20;;;;;;;11.82;10.25;;;1.30;99.90;;;;;;6124641;23;20470;-79
2023/03/09 02:25:53;;;;;;;13.85;11.23;;;1.30;99.90;;;;;;6100115;23;20479;-80
2023/03/09 02:28:19;;;;;;;14.20;11.45;;;1.40;99.90;;;;;;6099879;23;20018;-79
2023/03/09 02:30:47;;;;;;;14.35;11.57;;;2.00;99.90;;;;;;6125073;23;20234;-79
2023/03/09 02:33:25;;;;;;;14.35;11.43;;;2.10;99.90;;;;;;6076391;23;20022;-79
2023/03/09 02:35:53;;;;;;;13.07;11.57;;;1.30;99.90;;;;;;6125735;23;20024;-79
2023/03/09 02:38:19;;;;;;;13.07;10.63;;;1.20;99.90;;;;;;6102008;23;20048;-79
2023/03/09 02:40:45;;;;;;;12.35;11.00;;;1.50;99.90;;;;;;6126821;23;20066;-79
2023/03/09 02:43:12;;;;;;;10.93;9.82;;;1.30;99.90;;;;;;6100072;23;20029;-80
2023/03/09 02:45:38;;;;;;;11.90;10.65;;;1.60;99.90;;;;;;6099643;23;20022;-80
2023/03/09 02:48:04;;;;;;;11.57;10.30;;;1.90;99.90;;;;;;6125585;23;20021;-79
2023/03/09 02:50:33;;;;;;;11.77;9.77;;;1.30;99.90;;;;;;6101290;23;20017;-79
2023/03/09 02:53:00;;;;;;;11.75;9.68;;;1.60;99.90;;;;;;6099478;23;20093;-79
2023/03/09 02:55:26;;;;;;;13.00;10.90;;;1.30;99.90;;;;;;6101151;23;20102;-79
2023/03/09 02:57:51;;;;;;;10.23;9.07;;;1.90;99.90;;;;;;6119359;23;20518;-79
2023/03/09 03:00:21;;;;;;;13.32;10.25;;;1.70;99.90;;;;;;6119676;23;20018;-79
2023/03/09 03:02:46;;;;;;;12.98;9.98;;;1.20;99.90;;;;;;6095916;23;20022;-80
2023/03/09 03:05:12;;;;;;;11.80;9.93;;;1.20;99.90;;;;;;6121297;23;20079;-79
2023/03/09 03:07:38;;;;;;;12.55;9.27;;;1.30;99.90;;;;;;6121087;23;20018;-79
2023/03/09 03:10:04;;;;;;;10.60;9.50;;;1.70;99.90;;;;;;6096248;23;20014;-79
2023/03/09 03:12:30;;;;;;;8.98;8.07;;;1.20;99.90;;;;;;6097049;23;20018;-79
2023/03/09 03:14:56;;;;;;;10.82;9.73;;;1.20;99.90;;;;;;6096097;23;20018;-79
2023/03/09 03:17:21;;;;;;;10.43;9.27;;;1.70;99.90;;;;;;6120802;23;20018;-80
2023/03/09 03:19:47;;;;;;;9.55;8.65;;;1.50;99.90;;;;;;6096692;23;20096;-80
2023/03/09 03:22:13;;;;;;;11.07;9.27;;;1.90;99.90;;;;;;6120056;23;20025;-80
2023/03/09 03:24:40;;;;;;;10.27;8.93;;;1.80;99.90;;;;;;6120158;23;20014;-80
2023/03/09 03:27:06;;;;;;;11.38;9.45;;;2.00;99.90;;;;;;6072526;23;20022;-80
2023/03/09 03:29:32;;;;;;;11.90;9.23;;;1.10;99.90;;;;;;6072539;23;20018;-80
2023/03/09 03:31:58;;;;;;;10.32;9.23;;;1.30;99.90;;;;;;6072619;23;20560;-79
2023/03/09 03:34:24;;;;;;;10.82;9.23;;;1.30;99.90;;;;;;6072323;23;20017;-79
2023/03/09 03:36:50;;;;;;;10.52;8.75;;;1.10;99.90;;;;;;6072395;23;20037;-80
2023/03/09 03:39:16;;;;;;;11.25;9.52;;;1.10;99.90;;;;;;6071888;23;20493;-80
2023/03/09 03:41:42;;;;;;;12.38;8.95;;;1.10;99.90;;;;;;6070067;23;20390;-79
2023/03/09 03:44:08;;;;;;;10.95;9.30;;;1.10;99.90;;;;;;6071325;23;20092;-80
2023/03/09 03:46:36;;;;;;;10.35;9.27;;;1.20;99.90;;;;;;6075952;23;20053;-79
2023/03/09 03:49:02;;;;;;;10.45;9.30;;;1.10;99.90;;;;;;6075925;23;20018;-79
2023/03/09 03:51:28;;;;;;;10.88;9.75;;;1.70;99.90;;;;;;6099405;23;20010;-79
2023/03/09 03:53:54;;;;;;;10.48;9.40;;;1.10;99.90;;;;;;6099153;23;20049;-78
2023/03/09 03:56:19;;;;;;;11.90;9.88;;;1.10;99.90;;;;;;6077072;23;20065;-79
2023/03/09 03:58:45;;;;;;;11.70;10.50;;;1.00;99.90;;;;;;6077472;23;20731;-79
2023/03/09 04:01:11;;;;;;;11.57;9.73;;;1.10;99.90;;;;;;6078184;23;20100;-78
2023/03/09 04:03:36;;;;;;;14.48;11.02;;;1.10;99.90;;;;;;6102697;23;20017;-79
2023/03/09 04:06:02;;;;;;;12.82;10.98;;;1.30;99.90;;;;;;6078636;23;20029;-78
2023/03/09 04:08:29;;;;;;;13.80;10.93;;;1.10;99.90;;;;;;6101721;23;20073;-78
2023/03/09 04:10:55;;;;;;;14.50;11.02;;;2.40;99.90;;;;;;6078362;23;20018;-79
2023/03/09 04:13:21;;;;;;;12.85;11.50;;;1.10;99.90;;;;;;6077220;23;20020;-79
2023/03/09 04:15:46;;;;;;;13.98;11.60;;;1.60;99.90;;;;;;6078270;23;20032;-79
2023/03/09 04:18:13;;;;;;;18.75;12.07;;;1.00;99.90;;;;;;6101125;23;20716;-79
2023/03/09 04:20:40;;;;;;;13.48;11.80;;;0.90;99.90;;;;;;6078494;23;20026;-79
2023/03/09 04:23:06;;;;;;;14.73;12.68;;;1.90;99.90;;;;;;6077112;23;20050;-79
2023/03/09 04:25:32;;;;;;;15.88;12.30;;;0.90;99.90;;;;;;6110035;23;20013;-79
2023/03/09 04:27:57;;;;;;;14.15;12.23;;;1.00;99.90;;;;;;6101269;23;20081;-79
2023/03/09 04:30:23;;;;;;;16.85;13.05;;;1.00;99.90;;;;;;6101593;23;20014;-77
2023/03/09 04:32:50;;;;;;;16.90;13.68;;;2.10;99.90;;;;;;6101409;23;20014;-78
2023/03/09 04:35:16;;;;;;;14.88;12.57;;;1.30;99.90;;;;;;6101150;23;20025;-78
2023/03/09 04:37:43;;;;;;;14.57;12.20;;;0.90;99.90;;;;;;6126795;23;20017;-79
2023/03/09 04:40:10;;;;;;;16.27;13.43;;;2.10;99.90;;;;;;6101947;23;20528;-77
2023/03/09 04:42:36;;;;;;;17.15;12.52;;;1.00;99.90;;;;;;6126168;23;20057;-79
2023/03/09 04:45:03;;;;;;;16.13;13.45;;;1.00;99.90;;;;;;6101200;23;20461;-79
2023/03/09 04:47:29;;;;;;;16.90;13.90;;;0.90;99.90;;;;;;6125806;23;20018;-79
2023/03/09 04:49:54;;;;;;;16.35;13.48;;;2.00;99.90;;;;;;6125380;23;20061;-79
2023/03/09 04:52:20;;;;;;;19.13;13.20;;;1.00;99.90;;;;;;6125436;23;20014;-79
2023/03/09 04:54:47;;;;;;;17.13;13.18;;;1.00;99.90;;;;;;6102861;23;20025;-79
2023/03/09 04:57:12;;;;;;;18.88;14.93;;;1.00;99.90;;;;;;6102180;23;20231;-77
2023/03/09 04:59:38;;;;;;;16.67;14.57;;;1.00;99.90;;;;;;6101663;23;20021;-79
2023/03/09 05:02:04;;;;;;;18.48;15.13;;;1.30;99.90;;;;;;6101419;23;20355;-79
2023/03/09 05:04:30;;;;;;;17.10;15.18;;;1.00;99.90;;;;;;6101093;23;20782;-79
2023/03/09 05:06:55;;;;;;;17.52;15.57;;;1.30;99.90;;;;;;6101667;23;20026;-79
2023/03/09 05:09:21;;;;;;;17.25;15.23;;;1.00;99.90;;;;;;6102426;23;20038;-78
2023/03/09 05:11:51;;;;;;;18.63;15.73;;;1.00;99.90;;;;;;6125067;23;20018;-79
2023/03/09 05:14:18;;;;;;;19.35;15.80;;;1.60;99.90;;;;;;6099852;23;20038;-79
2023/03/09 05:16:45;;;;;;;19.33;15.20;;;1.70;99.90;;;;;;6099388;23;20026;-78
2023/03/09 05:19:11;;;;;;;22.33;17.17;;;1.10;99.90;;;;;;6124504;23;20021;-79
2023/03/09 05:21:37;;;;;;;20.25;16.77;;;1.00;99.90;;;;;;6101493;23;20068;-79
2023/03/09 05:24:04;;;;;;;18.35;15.55;;;0.90;99.90;;;;;;6098934;23;20066;-77
2023/03/09 05:26:29;;;;;;;21.20;17.45;;;0.90;99.90;;;;;;6097796;23;20121;-78
2023/03/09 05:28:55;;;;;;;23.27;17.58;;;0.90;99.90;;;;;;6124192;23;20041;-78
2023/03/09 05:31:21;;;;;;;21.80;16.83;;;1.10;99.90;;;;;;6126850;23;20398;-79
2023/03/09 05:33:47;;;;;;;25.35;19.33;;;1.90;99.90;;;;;;6099509;23;20024;-80
2023/03/09 05:36:22;;;;;;;21.65;17.02;;;1.80;99.90;;;;;;6098132;23;20010;-78
2023/03/09 05:38:49;;;;;;;28.05;18.27;;;1.20;99.90;;;;;;6099431;23;20028;-80
2023/03/09 05:41:16;;;;;;;23.13;18.08;;;1.80;99.90;;;;;;6121786;23;20083;-79
2023/03/09 05:43:42;;;;;;;23.85;17.98;;;1.20;99.90;;;;;;6101884;23;20022;-80
2023/03/09 05:46:13;;;;;;;24.08;17.88;;;0.90;99.90;;;;;;6105191;23;20073;-79
2023/03/09 05:48:39;;;;;;;23.67;18.02;;;1.30;99.90;;;;;;6127436;23;20037;-79
2023/03/09 05:51:07;;;;;;;23.55;18.00;;;1.70;99.90;;;;;;6103417;23;20081;-79
2023/03/09 05:53:34;;;;;;;23.13;18.63;;;1.00;99.90;;;;;;6101809;23;20481;-79
2023/03/09 05:56:01;;;;;;;21.02;17.40;;;0.90;99.90;;;;;;6124551;23;20029;-79
2023/03/09 05:58:27;;;;;;;21.27;17.08;;;1.30;99.90;;;;;;6123423;23;20026;-79
2023/03/09 06:00:53;;;;;;;20.10;15.73;;;0.90;99.90;;;;;;6096933;23;20447;-77
2023/03/09 06:03:19;;;;;;;20.08;16.55;;;0.90;99.90;;;;;;6096008;23;20013;-78
2023/03/09 06:05:46;;;;;;;22.30;16.33;;;0.90;99.90;;;;;;6118479;23;20467;-76
2023/03/09 06:08:11;;;;;;;20.52;16.00;;;0.90;99.90;;;;;;6119017;23;20739;-77
2023/03/09 06:10:37;;;;;;;20.63;16.20;;;0.90;99.90;;;;;;6098609;23;20014;-79
2023/03/09 06:13:03;;;;;;;21.30;16.38;;;1.70;99.90;;;;;;6098579;23;20096;-78
2023/03/09 06:15:30;;;;;;;22.33;15.30;;;0.90;99.90;;;;;;6098207;23;20049;-80
2023/03/09 06:17:55;;;;;;;19.38;14.63;;;1.10;99.90;;;;;;6098622;23;20056;-78
2023/03/09 06:20:21;;;;;;;23.70;15.93;;;1.30;99.90;;;;;;6098027;23;20096;-79
2023/03/09 06:22:47;;;;;;;22.17;15.07;;;1.00;99.90;;;;;;6098262;23;20072;-78
2023/03/09 06:25:13;;;;;;;21.75;14.70;;;1.00;99.90;;;;;;6097408;23;20017;-79
2023/03/09 06:27:39;;;;;;;23.27;16.70;;;0.90;99.90;;;;;;6099763;23;20022;-78
2023/03/09 06:30:05;;;;;;;17.35;14.15;;;1.00;99.90;;;;;;6098004;23;20600;-79
2023/03/09 06:32:34;;;;;;;16.77;13.85;;;1.00;99.90;;;;;;6097382;23;20937;-81
2023/03/09 06:34:59;;;;;;;19.02;14.93;;;1.10;99.90;;;;;;6097845;23;20013;-80
2023/03/09 06:37:25;;;;;;;18.00;13.98;;;2.30;99.90;;;;;;6098385;23;20036;-80
2023/03/09 06:39:51;;;;;;;20.55;13.95;;;1.00;99.90;;;;;;6098233;23;20127;-79
2023/03/09 06:42:17;;;;;;;18.88;14.73;;;1.00;99.90;;;;;;6125882;23;20442;-80
2023/03/09 06:44:44;;;;;;;19.42;14.68;;;1.70;99.90;;;;;;6101702;23;20498;-80
2023/03/09 06:47:11;;;;;;;20.15;14.20;;;1.30;99.90;;;;;;6124426;23;20021;-79
2023/03/09 06:49:37;;;;;;;19.13;15.32;;;1.00;99.90;;;;;;6097556;23;20051;-79
2023/03/09 06:52:03;;;;;;;18.95;14.25;;;1.00;99.90;;;;;;6096591;23;20014;-78
2023/03/09 06:54:29;;;;;;;18.13;14.13;;;1.10;99.90;;;;;;6122129;23;20018;-80
2023/03/09 06:56:55;;;;;;;17.05;14.38;;;1.10;99.90;;;;;;6117146;23;20053;-81
2023/03/09 06:59:20;;;;;;;17.80;14.18;;;1.60;99.90;;;;;;6119328;23;20020;-80
2023/03/09 07:01:46;;;;;;;19.40;14.80;;;1.00;99.90;;;;;;6096665;23;20029;-80
2023/03/09 07:04:12;;;;;;;20.55;15.68;;;1.30;99.90;;;;;;6120194;23;20048;-78
2023/03/09 07:06:38;;;;;;;18.77;15.73;;;1.10;99.90;;;;;;6094561;23;20018;-79
2023/03/09 07:09:03;;;;;;;19.55;15.18;;;1.20;99.90;;;;;;6095171;23;20018;-80
2023/03/09 07:11:30;;;;;;;18.50;15.27;;;1.40;99.90;;;;;;6093436;23;20017;-79
2023/03/09 07:13:55;;;;;;;18.65;15.55;;;2.00;99.90;;;;;;6116622;23;20018;-79
2023/03/09 07:16:22;;;;;;;19.95;14.93;;;2.30;99.90;;;;;;6121067;23;20025;-79
2023/03/09 07:18:48;;;;;;;18.77;15.90;;;1.50;99.90;;;;;;6121211;23;20018;-80
2023/03/09 07:21:14;;;;;;;22.08;16.63;;;2.30;99.90;;;;;;6098228;23;20024;-79
2023/03/09 07:23:40;;;;;;;17.85;15.45;;;1.40;99.90;;;;;;6097329;23;20017;-79
2023/03/09 07:26:07;;;;;;;19.63;16.17;;;2.20;99.90;;;;;;6095531;23;20037;-79
2023/03/09 07:28:34;;;;;;;19.20;15.07;;;1.40;99.90;;;;;;6119551;23;20064;-79
2023/03/09 07:31:10;;;;;;;20.45;15.10;;;2.40;99.90;;;;;;6098127;23;20025;-78
2023/03/09 07:33:36;;;;;;;18.45;15.93;;;1.70;99.90;;;;;;6097987;23;20405;-79
2023/03/09 07:36:06;;;;;;;19.05;15.70;;;1.40;99.90;;;;;;6097641;23;20053;-79
2023/03/09 07:38:32;;;;;;;18.65;15.05;;;1.40;99.90;;;;;;6098189;23;20021;-79
2023/03/09 07:40:59;;;;;;;19.75;16.45;;;1.90;99.90;;;;;;6122511;23;20025;-79
2023/03/09 07:43:25;;;;;;;22.08;16.70;;;1.40;99.90;;;;;;6096223;23;20014;-79
2023/03/09 07:45:51;;;;;;;21.10;16.77;;;1.70;99.90;;;;;;6098526;23;20025;-79
2023/03/09 07:48:17;;;;;;;19.50;15.10;;;1.90;99.90;;;;;;6122964;23;20026;-79
2023/03/09 07:50:44;;;;;;;22.27;16.73;;;2.40;99.90;;;;;;6099102;23;20056;-79
2023/03/09 07:53:09;;;;;;;18.80;15.85;;;1.60;99.90;;;;;;6099219;23;20081;-79
2023/03/09 07:55:36;;;;;;;19.95;15.20;;;2.20;99.90;;;;;;6098374;23;20052;-78
2023/03/09 07:58:03;;;;;;;18.95;15.60;;;1.80;99.90;;;;;;6120679;23;20093;-82
2023/03/09 08:00:29;;;;;;;20.23;15.27;;;1.90;99.90;;;;;;6095604;23;20106;-78
2023/03/09 08:02:56;;;;;;;24.52;16.23;;;1.80;99.90;;;;;;6097289;23;20100;-79
2023/03/09 08:05:23;;;;;;;17.42;14.20;;;1.60;99.90;;;;;;6099645;23;20018;-80
2023/03/09 08:07:49;;;;;;;15.88;13.75;;;1.80;99.90;;;;;;6096849;23;20021;-79
2023/03/09 08:10:16;;;;;;;16.75;14.70;;;2.80;99.90;;;;;;6096062;23;20059;-79
2023/03/09 08:12:46;;;;;;;18.58;15.05;;;1.70;99.90;;;;;;6096971;23;20037;-80
2023/03/09 08:15:11;;;;;;;19.25;14.63;;;1.70;99.90;;;;;;6099266;23;20020;-79
2023/03/09 08:17:37;;;;;;;18.75;15.20;;;1.70;99.90;;;;;;6097049;23;20343;-79
2023/03/09 08:20:11;;;;;;;17.42;15.50;;;1.70;99.90;;;;;;6120495;23;20025;-79
2023/03/09 08:22:37;;;;;;;18.90;14.52;;;1.70;99.90;;;;;;6121845;23;20058;-79
2023/03/09 08:25:04;;;;;;;16.40;14.57;;;2.30;99.90;;;;;;6096854;23;20052;-80
2023/03/09 08:27:36;;;;;;;15.65;13.90;;;1.90;99.90;;;;;;6093278;23;20891;-80
2023/03/09 08:30:02;;;;;;;17.40;15.50;;;2.00;99.90;;;;;;6095681;23;20319;-81
2023/03/09 08:32:30;;;;;;;17.25;14.95;;;2.00;99.90;;;;;;6096824;23;20073;-80
2023/03/09 08:34:57;;;;;;;16.70;14.57;;;2.00;99.90;;;;;;6096392;23;20018;-80
2023/03/09 08:37:24;;;;;;;15.20;13.60;;;2.20;99.90;;;;;;6121165;23;20022;-80
2023/03/09 08:39:52;;;;;;;16.73;15.02;;;1.90;99.90;;;;;;6096515;23;20021;-80
2023/03/09 08:42:18;;;;;;;17.17;15.48;;;2.10;99.90;;;;;;6098525;23;20060;-79
2023/03/09 08:44:44;;;;;;;16.50;14.80;;;2.10;99.90;;;;;;6097823;23;20446;-79
2023/03/09 08:47:10;;;;;;;17.05;14.38;;;2.80;99.90;;;;;;6097838;23;20370;-80
2023/03/09 08:49:37;;;;;;;15.32;13.73;;;2.40;99.90;;;;;;6125173;23;20009;-80
2023/03/09 08:52:03;;;;;;;16.33;14.50;;;2.10;99.90;;;;;;6097712;23;20018;-79
2023/03/09 08:54:29;;;;;;;16.77;14.95;;;2.40;99.90;;;;;;6098185;23;20017;-78
2023/03/09 08:56:56;;;;;;;15.00;13.40;;;2.20;99.90;;;;;;6099256;23;20129;-80
2023/03/09 08:59:22;;;;;;;15.93;13.95;;;2.20;99.90;;;;;;6098571;23;20018;-80
2023/03/09 09:01:48;;;;;;;17.23;15.43;;;2.90;99.90;;;;;;6097812;23;20013;-79
2023/03/09 09:04:13;;;;;;;15.55;13.95;;;2.50;99.90;;;;;;6098581;23;20030;-80
2023/03/09 09:06:39;;;;;;;16.70;14.95;;;2.30;99.90;;;;;;6120676;23;20477;-80
2023/03/09 09:09:05;;;;;;;16.25;14.55;;;2.30;99.90;;;;;;6098085;23;20016;-79
2023/03/09 09:11:32;;;;;;;16.95;14.63;;;3.40;99.90;;;;;;6097919;23;20046;-80
2023/03/09 09:13:59;;;;;;;16.67;14.18;;;2.60;99.90;;;;;;6097676;23;20020;-80
2023/03/09 09:16:27;;;;;;;17.83;15.02;;;2.50;99.90;;;;;;6097621;23;20006;-80
2023/03/09 09:18:54;;;;;;;16.48;14.77;;;2.40;99.90;;;;;;6097543;23;20025;-80
2023/03/09 09:21:20;;;;;;;16.40;14.18;;;3.10;99.90;;;;;;6097897;23;20124;-80
2023/03/09 09:23:46;;;;;;;16.77;14.50;;;2.40;99.90;;;;;;6096589;23;20033;-80
2023/03/09 09:26:14;;;;;;;16.63;14.82;;;2.40;99.90;;;;;;6097896;23;20024;-80
2023/03/09 09:28:41;;;;;;;17.38;15.35;;;2.50;99.90;;;;;;6097309;23;20022;-80
2023/03/09 09:31:07;;;;;;;16.20;14.48;;;2.70;99.90;;;;;;6122721;23;20029;-80
2023/03/09 09:33:34;;;;;;;15.98;14.35;;;3.10;99.90;;;;;;6121035;23;20017;-80
2023/03/09 09:36:05;;;;;;;15.65;13.98;;;2.80;99.90;;;;;;6097841;23;20386;-80
2023/03/09 09:38:33;;;;;;;15.35;13.75;;;2.40;99.90;;;;;;6098023;23;20356;-80
2023/03/09 09:41:04;;;;;;;15.05;13.45;;;3.70;99.90;;;;;;6097939;23;20022;-80
2023/03/09 09:43:31;;;;;;;15.18;13.57;;;2.50;99.90;;;;;;6097692;23;20022;-80
2023/03/09 09:45:59;;;;;;;15.60;14.00;;;3.20;99.90;;;;;;6098118;23;20017;-80
2023/03/09 09:48:27;;;;;;;16.20;13.90;;;3.10;99.90;;;;;;6122013;23;20018;-80
2023/03/09 09:51:10;;;;;;;14.63;13.13;;;2.60;99.90;;;;;;6099052;23;20483;-79
2023/03/09 09:54:04;;;;;;;15.27;13.70;;;2.60;99.90;;;;;;6096780;23;20020;-80
2023/03/09 09:56:52;;;;;;;15.70;14.10;;;2.60;99.90;;;;;;6122561;23;20363;-80
2023/03/09 09:59:21;;;;;;;17.13;15.27;;;3.20;99.90;;;;;;6121801;23;20024;-80
2023/03/09 10:02:09;;;;;;;17.95;15.13;;;2.50;99.90;;;;;;6098421;23;20021;-80
2023/03/09 10:04:46;;;;;;;17.85;16.05;;;2.60;99.90;;;;;;6097592;23;20017;-80
2023/03/09 10:07:18;;;;;;;17.45;15.05;;;3.70;99.90;;;;;;6096986;23;20025;-80
2023/03/09 10:09:51;;;;;;;16.92;15.23;;;3.20;99.90;;;;;;6097347;23;20072;-80
2023/03/09 10:12:17;;;;;;;18.13;15.02;;;2.60;99.90;;;;;;6098635;23;20010;-80
2023/03/09 10:14:44;;;;;;;16.88;14.85;;;3.80;99.90;;;;;;6097329;23;20093;-80
2023/03/09 10:17:14;;;;;;;16.33;14.65;;;3.70;99.90;;;;;;6097057;23;20057;-80
2023/03/09 10:19:40;;;;;;;14.93;13.43;;;2.80;99.90;;;;;;6122057;23;20018;-80
2023/03/09 10:22:14;;;;;;;14.70;13.20;;;3.00;99.90;;;;;;6094754;23;20409;-80
2023/03/09 10:24:46;;;;;;;15.18;13.30;;;2.80;99.90;;;;;;6097937;23;20415;-80
2023/03/09 10:27:36;;;;;;;15.93;14.32;;;3.00;99.90;;;;;;6074899;23;20025;-80
2023/03/09 10:30:28;;;;;;;15.10;13.60;;;2.90;99.90;;;;;;6075185;23;20067;-81
2023/03/09 10:33:26;;;;;;;15.48;13.52;;;2.90;99.90;;;;;;6074072;23;20014;-80
2023/03/09 10:36:03;;;;;;;14.70;13.23;;;3.00;99.90;;;;;;6068295;23;20019;-80
2023/03/09 10:38:29;;;;;;;15.88;12.93;;;3.10;99.90;;;;;;6074384;23;20084;-80
2023/03/09 10:40:57;;;;;;;15.60;13.75;;;3.10;99.90;;;;;;6074742;23;20021;-80
2023/03/09 10:43:33;;;;;;;14.23;12.73;;;3.10;99.90;;;;;;6074507;23;20056;-80
2023/03/09 10:46:11;;;;;;;;;;;3.10;99.90;;;;;;6077030;23;20092;-80
2023/03/09 10:48:37;;;;;;;14.38;12.88;;;3.10;99.90;;;;;;6074522;23;19920;-80
2023/03/09 10:51:05;;;;;;;14.80;13.30;;;3.10;99.90;;;;;;6099752;23;20062;-80
2023/03/09 10:53:45;;;;;;;14.43;12.93;;;3.10;99.90;;;;;;6098676;23;20053;-80
2023/03/09 10:56:29;;;;;;;14.02;12.35;;;3.10;99.90;;;;;;6075802;23;20092;-80
2023/03/09 10:59:06;;;;;;;13.93;12.52;;;3.10;99.90;;;;;;6076768;23;20044;-80
2023/03/09 11:01:37;;;;;;;13.93;12.45;;;3.40;99.90;;;;;;6076575;23;20017;-80
2023/03/09 11:04:21;;;;;;;14.18;12.73;;;3.10;99.90;;;;;;6074729;23;20517;-80
2023/03/09 11:06:58;;;;;;;13.13;11.82;;;3.30;99.90;;;;;;6074314;23;20052;-80
2023/03/09 11:09:43;;;;;;;14.18;12.77;;;3.80;99.90;;;;;;6075174;23;20096;-80
2023/03/09 11:12:27;;;;;;;14.45;13.00;;;3.20;99.90;;;;;;6100023;23;20411;-80
2023/03/09 11:15:24;;;;;;;15.23;12.27;;;3.20;99.90;;;;;;6074148;23;20045;-80
2023/03/09 11:17:50;;;;;;;13.90;12.38;;;3.30;99.90;;;;;;6056579;23;20033;-82
2023/03/09 11:20:31;;;;;;;15.55;13.48;;;4.00;99.90;;;;;;6073295;23;20021;-81
2023/03/09 11:23:05;;;;;;;14.07;12.65;;;3.40;99.90;;;;;;6073244;23;20018;-81
2023/03/09 11:29:29;;;;;;;13.45;11.57;;;3.40;99.90;;;;;;6098652;23;20049;-80
2023/03/09 11:31:56;;;;;;;13.30;11.90;;;3.80;99.90;;;;;;6122092;23;20279;-80
2023/03/09 11:34:36;;;;;;;12.48;11.18;;;4.90;99.90;;;;;;6098730;23;20016;-80
2023/03/09 11:37:22;;;;;;;12.57;11.27;;;3.50;99.90;;;;;;6097831;23;20094;-80
2023/03/09 11:40:03;;;;;;;13.90;11.90;;;3.40;99.90;;;;;;6099209;23;20022;-80
2023/03/09 11:43:02;;;;;;;13.38;12.07;;;3.40;99.90;;;;;;6098921;23;20084;-80
2023/03/09 11:45:32;;;;;;;13.32;12.02;;;3.80;99.90;;;;;;6082690;23;20084;-81
2023/03/09 11:48:07;;;;;;;13.27;11.98;;;3.50;99.90;;;;;;6098385;23;20018;-80
2023/03/09 11:50:39;;;;;;;13.32;12.02;;;3.50;99.90;;;;;;6122848;23;20010;-80
2023/03/09 11:53:13;;;;;;;14.05;12.65;;;3.60;99.90;;;;;;6098307;23;20453;-81
2023/03/09 11:55:44;;;;;;;13.18;11.88;;;3.60;99.90;;;;;;6094417;23;20117;-80
2023/03/09 11:58:16;;;;;;;14.15;12.75;;;3.50;99.90;;;;;;6122829;23;20021;-80
2023/03/09 12:00:47;;;;;;;12.68;11.43;;;3.60;99.90;;;;;;6096513;23;20017;-80
2023/03/09 12:03:16;;;;;;;13.90;12.50;;;4.50;99.90;;;;;;6098922;23;20088;-80
2023/03/09 12:05:47;;;;;;;13.50;12.10;;;4.50;99.90;;;;;;6099918;23;20018;-80
2023/03/09 12:08:21;;;;;;;14.20;12.70;;;3.80;99.90;;;;;;6099030;23;20010;-80
2023/03/09 12:11:05;;;;;;;14.20;12.27;;;3.60;99.90;;;;;;6100000;23;20490;-80
2023/03/09 12:13:55;;;;;;;12.80;11.35;;;3.70;99.90;;;;;;6123288;23;20101;-80
2023/03/09 12:16:35;;;;;;;13.10;11.80;;;3.60;99.90;;;;;;6100214;23;20093;-80
2023/03/09 12:19:10;;;;;;;13.43;11.88;;;3.70;99.90;;;;;;6102333;23;20041;-80
2023/03/09 12:21:42;;;;;;;12.93;11.63;;;3.90;99.90;;;;;;6101389;23;20037;-80
2023/03/09 12:24:41;;;;;;;14.05;12.52;;;3.90;99.90;;;;;;6124570;23;20108;-80
2023/03/09 12:27:10;;;;;;;13.52;12.13;;;3.50;99.90;;;;;;6123985;23;20033;-80
2023/03/09 12:29:39;;;;;;;13.77;12.38;;;3.50;99.90;;;;;;6100384;23;20021;-80
2023/03/09 12:32:34;;;;;;;13.20;11.93;;;3.60;99.90;;;;;;6123257;23;20028;-80
2023/03/09 12:35:04;;;;;;;13.77;12.35;;;3.70;99.90;;;;;;6097474;23;20009;-80
2023/03/09 12:37:30;;;;;;;13.93;12.43;;;3.50;99.90;;;;;;6098937;23;20013;-81
2023/03/09 12:40:20;;;;;;;14.60;13.05;;;3.50;99.90;;;;;;6100712;23;20048;-80
2023/03/09 12:42:48;;;;;;;14.15;12.75;;;3.50;99.90;;;;;;6100164;23;20022;-80
2023/03/09 12:45:17;;;;;;;13.77;12.38;;;4.30;99.90;;;;;;6100966;23;20039;-80
2023/03/09 12:48:17;;;;;;;13.77;12.48;;;3.60;99.90;;;;;;6101038;23;20022;-80
2023/03/09 12:50:43;;;;;;;13.13;11.80;;;4.10;99.90;;;;;;6084411;23;20021;-80
2023/03/09 12:53:16;;;;;;;13.35;12.05;;;3.50;99.90;;;;;;6099751;23;20010;-80